Time;durP1;ratioP1;P1;durP2;ratioP2;P2;SDS_P1;SDS_P2;PMS_P1;PMS_P2;Temp;Humidity;BMP_temperature;BMP_pressure;BME280_temperature;BME280_humidity;BME280_pressure;Samples;Min_cycle;Max_cycle;Signal;HPM_P1;HPM_P2
2022/05/04 00:00:11;;;;;;;21.27;7.93;;;;;;;7.99;75.54;101978.56;6185934;23;20119;-80
2022/05/04 00:02:37;;;;;;;24.75;8.48;;;;;;;8.04;75.25;101979.22;6185872;23;20001;-80
2022/05/04 00:05:04;;;;;;;25.67;9.65;;;;;;;7.91;75.04;101949.69;6185680;23;20001;-80
2022/05/04 00:07:29;;;;;;;25.33;10.52;;;;;;;8.05;75.85;101968.88;6185341;23;20016;-80
2022/05/04 00:09:57;;;;;;;24.33;8.75;;;;;;;8.15;76.29;101969.41;6185432;23;20005;-80
2022/05/04 00:12:25;;;;;;;21.02;9.05;;;;;;;8.16;77.41;101973.69;6158818;23;20316;-80
2022/05/04 00:14:51;;;;;;;21.50;9.35;;;;;;;8.17;75.36;101974.53;6186067;23;20047;-81
2022/05/04 00:17:17;;;;;;;26.33;9.77;;;;;;;8.15;74.59;101968.56;6186276;23;20005;-81
2022/05/04 00:19:42;;;;;;;19.73;9.07;;;;;;;8.15;74.65;101974.56;6185604;23;20438;-81
2022/05/04 00:22:07;;;;;;;26.77;9.00;;;;;;;8.16;74.30;101983.97;6185809;23;20005;-80
2022/05/04 00:24:33;;;;;;;16.05;8.82;;;;;;;8.14;74.52;101983.16;6185628;23;20008;-79
2022/05/04 00:26:58;;;;;;;19.20;8.82;;;;;;;8.12;75.18;101984.97;6185430;23;20374;-79
2022/05/04 00:29:24;;;;;;;22.65;9.88;;;;;;;7.98;74.46;101958.88;6185614;23;20001;-80
2022/05/04 00:31:49;;;;;;;26.73;9.98;;;;;;;8.14;75.85;101979.75;6185593;23;20008;-80
2022/05/04 00:34:15;;;;;;;20.20;8.85;;;;;;;8.19;74.88;101977.88;6185567;23;20011;-80
2022/05/04 00:36:40;;;;;;;23.10;9.38;;;;;;;8.20;74.39;101971.84;6185733;23;20047;-80
2022/05/04 00:39:06;;;;;;;24.48;9.35;;;;;;;7.94;74.27;101934.97;6185390;23;20005;-80
2022/05/04 00:41:31;;;;;;;23.17;9.27;;;;;;;8.21;74.39;101976.09;6185280;23;20009;-80
2022/05/04 00:43:57;;;;;;;22.60;8.43;;;;;;;8.24;74.01;101981.97;6185690;23;20005;-81
2022/05/04 00:46:23;;;;;;;21.13;9.10;;;;;;;8.22;73.53;101973.47;6187850;23;20040;-80
2022/05/04 00:48:48;;;;;;;22.02;8.48;;;;;;;8.23;74.90;101979.44;6187605;23;20084;-80
2022/05/04 00:51:14;;;;;;;22.88;8.95;;;;;;;8.25;73.64;101980.22;6187683;23;20439;-80
2022/05/04 00:53:41;;;;;;;21.58;9.77;;;;;;;8.03;74.11;101942.38;6161119;23;20005;-80
2022/05/04 00:56:08;;;;;;;20.13;8.70;;;;;;;8.25;74.04;101975.91;6187532;23;20015;-81
2022/05/04 01:01:20;;;;;;;21.42;8.65;;;;;;;8.31;74.18;101974.88;6187688;23;20075;-80
2022/05/04 01:03:46;;;;;;;20.75;8.98;;;;;;;8.31;73.38;101970.56;6187684;23;20420;-80
2022/05/04 01:06:12;;;;;;;21.83;8.57;;;;;;;8.30;73.30;101975.78;6187965;23;20011;-80
2022/05/04 01:08:37;;;;;;;25.15;9.40;;;;;;;8.27;73.59;101965.59;6187246;23;20013;-80
2022/05/04 01:11:03;;;;;;;18.58;8.30;;;;;;;8.25;73.24;101970.78;6187173;23;20012;-80
2022/05/04 01:13:28;;;;;;;25.27;9.65;;;;;;;8.09;73.43;101937.94;6187494;23;20005;-80
2022/05/04 01:15:54;;;;;;;23.25;9.30;;;;;;;8.25;74.36;101965.63;6187466;23;20005;-80
2022/05/04 01:18:19;;;;;;;21.92;8.70;;;;;;;8.28;74.51;101970.69;6187963;23;20013;-80
2022/05/04 01:20:44;;;;;;;22.00;9.05;;;;;;;8.19;73.60;101959.88;6187737;23;20419;-81
2022/05/04 01:23:10;;;;;;;26.40;9.60;;;;;;;8.25;73.75;101975.91;6187335;23;20012;-81
2022/05/04 01:25:35;;;;;;;22.48;8.70;;;;;;;8.22;73.59;101975.19;6187177;23;20051;-80
2022/05/04 01:28:01;;;;;;;20.05;8.40;;;;;;;8.07;73.38;101956.00;6160943;23;20330;-81
2022/05/04 01:30:27;;;;;;;19.98;7.90;;;;;;;8.15;73.39;101971.16;6187645;23;20008;-80
2022/05/04 01:32:52;;;;;;;24.25;8.55;;;;;;;8.19;73.43;101975.31;6187671;23;20311;-80
2022/05/04 01:35:18;;;;;;;22.35;8.25;;;;;;;8.13;73.14;101962.66;6187592;23;20001;-79
2022/05/04 01:37:43;;;;;;;17.15;8.18;;;;;;;7.96;72.92;101930.66;6187332;23;20423;-80
2022/05/04 01:40:09;;;;;;;21.02;8.60;;;;;;;8.12;73.13;101969.53;6160529;23;20016;-80
2022/05/04 01:42:34;;;;;;;20.90;7.55;;;;;;;8.07;72.96;101962.88;6186836;23;20020;-79
2022/05/04 01:44:59;;;;;;;19.27;7.50;;;;;;;8.05;73.13;101963.75;6187484;23;20075;-81
2022/05/04 01:47:25;;;;;;;22.05;8.00;;;;;;;7.91;73.01;101940.25;6187513;23;20331;-79
2022/05/04 01:49:50;;;;;;;20.98;7.65;;;;;;;7.93;73.05;101943.59;6187179;23;20012;-79
2022/05/04 01:52:16;;;;;;;22.95;8.07;;;;;;;7.86;73.04;101938.69;6187454;23;20005;-80
2022/05/04 01:54:41;;;;;;;17.17;7.45;;;;;;;7.88;72.89;101936.94;6187197;23;20005;-80
2022/05/04 01:57:06;;;;;;;21.80;7.90;;;;;;;8.08;73.24;101969.69;6186759;23;20375;-80
2022/05/04 01:59:32;;;;;;;19.55;8.38;;;;;;;8.00;72.90;101952.78;6187168;23;20051;-80
2022/05/04 02:01:58;;;;;;;17.52;7.72;;;;;;;8.05;73.25;101960.34;6186998;23;20056;-80
2022/05/04 02:04:23;;;;;;;21.98;7.60;;;;;;;7.92;73.29;101948.78;6187299;23;20001;-80
2022/05/04 02:06:50;;;;;;;22.75;8.23;;;;;;;7.95;73.38;101964.09;6187089;23;20009;-79
2022/05/04 02:09:16;;;;;;;20.55;7.75;;;;;;;7.96;73.29;101961.50;6186815;23;20016;-80
2022/05/04 02:11:42;;;;;;;24.15;7.50;;;;;;;7.91;72.84;101955.66;6187196;23;20005;-80
2022/05/04 02:14:07;;;;;;;20.90;8.20;;;;;;;7.92;73.55;101961.66;6186831;23;20103;-79
2022/05/04 02:16:32;;;;;;;20.30;8.35;;;;;;;7.90;73.67;101961.72;6187006;23;20009;-80
2022/05/04 02:18:58;;;;;;;19.15;7.22;;;;;;;7.72;74.12;101934.03;6187012;23;20075;-79
2022/05/04 02:21:24;;;;;;;18.85;7.78;;;;;;;7.68;74.13;101933.31;6187160;23;20009;-80
2022/05/04 02:23:50;;;;;;;18.73;7.80;;;;;;;7.64;73.92;101938.59;6187040;23;20351;-80
2022/05/04 02:26:15;;;;;;;23.50;7.47;;;;;;;7.72;74.01;101952.88;6186832;23;20084;-80
2022/05/04 02:28:43;;;;;;;22.15;9.02;;;;;;;7.70;74.38;101957.22;6159793;23;20419;-80
2022/05/04 02:31:08;;;;;;;23.95;7.85;;;;;;;7.67;74.53;101957.34;6187035;23;20005;-79
2022/05/04 02:33:33;;;;;;;25.35;8.35;;;;;;;7.58;74.38;101939.63;6186730;23;20296;-80
2022/05/04 02:38:43;;;;;;;18.85;7.70;;;;;;;7.57;74.33;101944.81;6186846;23;20386;-80
2022/05/04 02:41:08;;;;;;;23.15;8.07;;;;;;;7.43;75.10;101917.00;6185920;23;20435;-78
2022/05/04 02:43:33;;;;;;;22.35;7.70;;;;;;;7.53;74.51;101941.50;6186317;23;20005;-79
2022/05/04 02:46:15;;;;;;;22.63;8.10;;;;;;;7.49;74.58;101934.78;6186532;23;20001;-79
2022/05/04 02:48:40;;;;;;;23.25;7.35;;;;;;;7.61;74.16;101949.81;6186710;23;20075;-79
2022/05/04 02:51:05;;;;;;;25.23;7.82;;;;;;;7.62;74.44;101948.91;6186895;23;20439;-78
2022/05/04 02:53:31;;;;;;;20.30;7.78;;;;;;;7.60;74.77;101945.56;6186340;23;20051;-79
2022/05/04 02:55:56;;;;;;;21.08;8.38;;;;;;;7.61;74.00;101951.53;6186055;23;20001;-80
2022/05/04 02:58:21;;;;;;;23.30;7.82;;;;;;;7.40;74.19;101917.94;6186347;23;20457;-80
2022/05/04 03:00:47;;;;;;;24.80;8.02;;;;;;;7.59;74.45;101948.19;6186774;23;20016;-81
2022/05/04 03:03:12;;;;;;;18.95;7.30;;;;;;;7.56;74.23;101943.13;6186316;23;20093;-80
2022/05/04 03:05:38;;;;;;;22.63;7.88;;;;;;;7.31;74.92;101910.53;6186334;23;20008;-80
2022/05/04 03:08:03;;;;;;;18.25;7.10;;;;;;;7.56;75.48;101949.09;6185985;23;20445;-80
2022/05/04 03:10:28;;;;;;;25.25;7.75;;;;;;;7.36;74.66;101911.19;6186034;23;20012;-79
2022/05/04 03:12:54;;;;;;;21.83;7.88;;;;;;;7.55;74.70;101942.28;6186695;23;20092;-79
2022/05/04 03:15:19;;;;;;;23.27;7.45;;;;;;;7.54;74.07;101937.19;6186277;23;20083;-78
2022/05/04 03:17:44;;;;;;;24.88;8.20;;;;;;;7.54;74.62;101934.63;6186236;23;20454;-79
2022/05/04 03:20:12;;;;;;;18.20;8.07;;;;;;;7.51;74.13;101937.31;6186464;23;20079;-78
2022/05/04 03:22:37;;;;;;;23.80;8.85;;;;;;;7.45;75.00;101926.31;6186016;23;20001;-79
2022/05/04 03:25:07;;;;;;;23.90;8.30;;;;;;;7.48;74.64;101935.69;6186403;23;20011;-80
2022/05/04 03:27:32;;;;;;;23.83;8.52;;;;;;;7.46;74.56;101927.16;6185866;23;20005;-79
2022/05/04 03:29:58;;;;;;;22.13;8.73;;;;;;;7.41;75.89;101927.31;6186249;23;20043;-80
2022/05/04 03:32:23;;;;;;;19.08;7.68;;;;;;;7.41;75.33;101927.31;6186124;23;20005;-80
2022/05/04 03:34:48;;;;;;;20.55;7.65;;;;;;;7.38;75.11;101921.47;6186376;23;20020;-79
2022/05/04 03:37:14;;;;;;;22.27;7.70;;;;;;;7.34;75.15;101923.25;6186013;23;20012;-80
2022/05/04 03:39:39;;;;;;;23.23;8.07;;;;;;;7.11;75.35;101893.19;6186444;23;20012;-81
2022/05/04 03:42:05;;;;;;;23.42;8.15;;;;;;;7.24;76.01;101926.19;6185468;23;20013;-80
2022/05/04 03:44:30;;;;;;;21.35;8.45;;;;;;;7.19;76.90;101926.34;6186287;23;20437;-79
2022/05/04 03:46:56;;;;;;;23.67;8.27;;;;;;;7.13;77.06;101934.22;6185859;23;20442;-79
2022/05/04 03:49:23;;;;;;;20.75;8.50;;;;;;;6.97;77.85;101923.56;6186066;23;20026;-80
2022/05/04 03:51:48;;;;;;;19.83;8.40;;;;;;;6.95;78.34;101934.78;6186011;23;20009;-79
2022/05/04 03:54:14;;;;;;;18.42;7.80;;;;;;;6.80;78.23;101924.09;6186211;23;20005;-79
2022/05/04 03:56:40;;;;;;;19.55;8.75;;;;;;;6.77;78.95;101934.44;6185633;23;20005;-79
2022/05/04 03:59:06;;;;;;;19.73;7.82;;;;;;;6.71;79.47;101942.34;6185738;23;20312;-79
2022/05/04 04:01:32;;;;;;;27.67;9.25;;;;;;;6.72;78.31;101932.91;6186104;23;20005;-79
2022/05/04 04:03:57;;;;;;;25.55;8.68;;;;;;;6.67;78.44;101933.03;6185740;23;20431;-78
2022/05/04 04:06:23;;;;;;;22.95;8.15;;;;;;;6.45;78.32;101902.00;6185767;23;20001;-80
2022/05/04 04:08:49;;;;;;;25.45;8.32;;;;;;;6.54;79.03;101921.44;6185836;23;20005;-80
2022/05/04 04:11:14;;;;;;;24.88;8.82;;;;;;;6.50;79.40;101930.97;6185489;23;20470;-80
2022/05/04 04:13:40;;;;;;;25.55;8.80;;;;;;;6.26;80.16;101906.81;6185522;23;20032;-79
2022/05/04 04:16:06;;;;;;;19.33;8.10;;;;;;;5.96;80.82;101870.03;6185839;23;20011;-80
2022/05/04 04:18:31;;;;;;;29.20;10.82;;;;;;;6.26;81.13;101926.50;6185929;23;20009;-79
2022/05/04 04:23:41;;;;;;;23.42;9.82;;;;;;;5.93;81.96;101903.44;6185776;23;20347;-79
2022/05/04 04:26:07;;;;;;;24.30;8.70;;;;;;;6.07;81.76;101928.72;6159559;23;20001;-79
2022/05/04 04:28:35;;;;;;;19.08;8.57;;;;;;;6.02;81.91;101933.97;6159093;23;20008;-79
2022/05/04 04:31:01;;;;;;;22.08;8.93;;;;;;;6.00;82.14;101937.47;6185555;23;20001;-79
2022/05/04 04:33:27;;;;;;;25.52;9.43;;;;;;;6.00;82.08;101943.44;6185848;23;20001;-80
2022/05/04 04:35:53;;;;;;;28.85;9.55;;;;;;;6.00;82.09;101935.75;6185983;23;20005;-80
2022/05/04 04:38:19;;;;;;;24.95;8.68;;;;;;;6.13;81.76;101940.53;6185542;23;20001;-80
2022/05/04 04:40:44;;;;;;;24.42;9.00;;;;;;;6.16;81.50;101948.97;6185668;23;20020;-80
2022/05/04 04:43:10;;;;;;;23.67;8.63;;;;;;;6.26;81.10;101944.44;6185100;23;20009;-80
2022/05/04 04:45:36;;;;;;;25.88;9.57;;;;;;;6.25;80.57;101947.91;6185384;23;20031;-80
2022/05/04 04:48:01;;;;;;;29.30;9.75;;;;;;;6.15;80.82;101923.38;6185639;23;20330;-80
2022/05/04 04:50:27;;;;;;;21.73;8.88;;;;;;;6.29;81.25;101941.78;6185513;23;20076;-79
2022/05/04 04:52:52;;;;;;;26.00;9.52;;;;;;;6.30;81.43;101954.59;6185488;23;20072;-79
2022/05/04 04:55:18;;;;;;;21.85;8.95;;;;;;;6.34;80.89;101942.53;6159071;23;20429;-79
2022/05/04 04:57:43;;;;;;;21.55;8.68;;;;;;;6.19;80.74;101907.00;6185083;23;20008;-80
2022/05/04 05:00:09;;;;;;;27.38;9.23;;;;;;;6.40;80.58;101936.38;6185527;23;20028;-81
2022/05/04 05:02:35;;;;;;;27.88;8.55;;;;;;;6.50;80.78;101942.94;6185346;23;20037;-80
2022/05/04 05:05:02;;;;;;;23.85;8.77;;;;;;;6.59;80.63;101951.22;6159232;23;20028;-79
2022/05/04 05:07:28;;;;;;;26.02;9.05;;;;;;;6.66;80.09;101939.03;6185709;23;20040;-81
2022/05/04 05:09:53;;;;;;;20.35;8.40;;;;;;;6.89;79.37;101940.97;6185574;23;20001;-80
2022/05/04 05:12:21;;;;;;;21.90;8.57;;;;;;;7.33;78.17;101941.31;6185464;23;20055;-80
2022/05/04 05:17:31;;;;;;;25.65;9.68;;;;;;;8.16;73.48;101919.66;6185498;23;20016;-79
2022/05/04 05:19:57;;;;;;;19.25;8.05;;;;;;;8.16;72.69;101926.50;6185333;23;20001;-80
2022/05/04 05:22:22;;;;;;;20.90;8.20;;;;;;;7.73;72.54;101869.69;6185483;23;20019;-79
2022/05/04 05:24:47;;;;;;;20.83;8.52;;;;;;;8.22;73.62;101952.88;6185450;23;20080;-80
2022/05/04 05:27:14;;;;;;;22.52;7.68;;;;;;;8.31;72.71;101944.00;6185089;23;20490;-80
2022/05/04 05:29:39;;;;;;;23.00;7.75;;;;;;;8.41;71.51;101947.94;6185142;23;20062;-80
2022/05/04 05:32:05;;;;;;;23.52;7.78;;;;;;;8.43;71.77;101955.59;6187189;23;20039;-80
2022/05/04 05:34:33;;;;;;;20.33;8.13;;;;;;;8.63;71.73;101948.00;6187302;23;20431;-80
2022/05/04 05:36:59;;;;;;;20.75;8.40;;;;;;;9.36;69.79;101927.16;6187310;23;20016;-80
2022/05/04 05:39:24;;;;;;;24.48;7.57;;;;;;;10.83;65.05;101931.13;6187287;23;20005;-79
2022/05/04 05:41:50;;;;;;;26.02;8.45;;;;;;;12.11;59.61;101927.44;6187013;23;20013;-80
2022/05/04 05:44:15;;;;;;;19.60;7.32;;;;;;;13.00;56.71;101931.28;6186810;23;20507;-80
2022/05/04 05:46:40;;;;;;;15.75;7.15;;;;;;;13.78;54.61;101929.44;6187241;23;20055;-80
2022/05/04 05:49:06;;;;;;;22.80;7.10;;;;;;;14.22;52.63;101929.34;6187080;23;20076;-80
2022/05/04 05:51:31;;;;;;;18.75;6.72;;;;;;;14.59;50.41;101901.97;6187064;23;20088;-80
2022/05/04 05:53:56;;;;;;;22.90;7.13;;;;;;;15.10;49.46;101930.78;6186957;23;20499;-79
2022/05/04 05:56:22;;;;;;;20.83;8.02;;;;;;;15.12;48.51;101894.25;6186555;23;20005;-80
2022/05/04 05:58:47;;;;;;;16.70;7.00;;;;;;;15.86;47.03;101901.50;6186572;23;20084;-81
2022/05/04 06:01:12;;;;;;;20.73;7.60;;;;;;;16.52;45.70;101918.63;6187497;23;20002;-81
2022/05/04 06:03:37;;;;;;;15.18;6.30;;;;;;;17.26;43.21;101934.19;6187028;23;20005;-80
2022/05/04 06:06:03;;;;;;;23.75;7.32;;;;;;;17.23;42.77;101906.56;6187160;23;20005;-80
2022/05/04 06:08:28;;;;;;;19.30;7.38;;;;;;;17.62;42.60;101931.47;6160284;23;20107;-81
2022/05/04 06:10:53;;;;;;;19.33;6.55;;;;;;;17.56;41.31;101879.69;6186476;23;20331;-81
2022/05/04 06:13:19;;;;;;;18.55;7.10;;;;;;;17.85;41.44;101897.56;6187101;23;20008;-77
2022/05/04 06:15:44;;;;;;;16.55;6.43;;;;;;;18.60;40.17;101944.84;6186878;23;20012;-80
2022/05/04 06:18:10;;;;;;;19.08;6.97;;;;;;;18.73;38.60;101929.03;6186667;23;20427;-78
2022/05/04 06:20:38;;;;;;;21.25;7.03;;;;;;;18.41;40.06;101926.31;6187055;23;19997;-85
2022/05/04 06:23:04;;;;;;;22.55;7.03;;;;;;;19.13;38.84;101944.97;6186878;23;20055;-81
2022/05/04 06:25:30;;;;;;;18.30;7.40;;;;;;;19.57;37.03;101946.59;6186904;23;20036;-81
2022/05/04 06:27:55;;;;;;;18.08;6.53;;;;;;;19.33;37.88;101912.75;6187049;23;20013;-82
2022/05/04 06:35:49;;;;;;;16.85;6.82;;;;;;;21.08;35.07;101949.22;6186692;23;20019;-81
2022/05/04 06:38:14;;;;;;;15.40;6.50;;;;;;;21.40;33.53;101951.59;6159962;23;20091;-80
2022/05/04 06:40:42;;;;;;;17.88;6.38;;;;;;;21.24;33.11;101895.28;6186436;23;20092;-81
2022/05/04 06:43:08;;;;;;;17.50;5.65;;;;;;;21.35;33.35;101945.13;6185928;23;20465;-81
2022/05/04 06:45:34;;;;;;;17.13;6.50;;;;;;;21.00;33.77;101924.63;6186780;23;20008;-81
2022/05/04 06:47:59;;;;;;;13.73;5.90;;;;;;;20.76;33.57;101914.53;6186645;23;20009;-82
2022/05/04 06:50:25;;;;;;;24.98;7.80;;;;;;;20.67;33.97;101958.16;6186380;23;20104;-81
2022/05/04 06:52:50;;;;;;;27.38;7.32;;;;;;;20.33;34.18;101955.81;6186379;23;20072;-80
2022/05/04 06:55:15;;;;;;;17.25;6.53;;;;;;;20.06;33.71;101921.47;6186556;23;20486;-81
2022/05/04 06:57:43;;;;;;;19.23;6.95;;;;;;;20.21;34.76;101948.16;6186435;23;20005;-81
2022/05/04 07:00:09;;;;;;;12.73;6.45;;;;;;;20.22;33.63;101932.28;6186210;23;20001;-80
2022/05/04 07:02:36;;;;;;;18.52;6.78;;;;;;;20.55;34.32;101938.22;6186275;23;20005;-79
2022/05/04 07:05:03;;;;;;;16.33;6.00;;;;;;;20.84;33.80;101946.16;6186247;23;20001;-80
2022/05/04 07:07:31;;;;;;;18.42;6.57;;;;;;;20.65;33.35;101886.59;6185921;23;20383;-78
2022/05/04 07:09:58;;;;;;;21.25;7.25;;;;;;;21.28;32.94;101934.31;6159346;23;20332;-83
2022/05/04 07:12:24;;;;;;;21.80;6.63;;;;;;;21.45;31.92;101945.94;6186115;23;20408;-83
2022/05/04 07:14:49;;;;;;;16.00;6.78;;;;;;;21.33;32.45;101932.09;6186399;23;20024;-82
2022/05/04 07:17:14;;;;;;;13.43;6.97;;;;;;;21.53;32.05;101940.78;6186486;23;20422;-82
2022/05/04 07:19:39;;;;;;;15.60;6.20;;;;;;;21.03;32.25;101948.78;6186386;23;20025;-81
2022/05/04 07:24:30;;;;;;;16.02;6.60;;;;;;;16.87;36.76;101737.88;6188023;22;20045;-82
2022/05/04 07:27:06;;;;;;;17.67;6.65;;;;;;;16.46;39.50;101866.88;6185848;23;20021;-80
2022/05/04 07:29:32;;;;;;;18.58;6.80;;;;;;;15.92;41.57;101953.16;6186415;23;20028;-80
2022/05/04 07:31:57;;;;;;;16.08;7.47;;;;;;;15.12;43.70;101949.72;6185556;23;20403;-81
2022/05/04 07:34:22;;;;;;;18.77;7.90;;;;;;;14.60;44.53;101954.78;6186301;23;20005;-79
2022/05/04 07:36:48;;;;;;;19.58;8.05;;;;;;;14.17;47.10;101957.38;6186424;23;20099;-77
2022/05/04 07:42:21;;;;;;;18.15;7.68;;;;;;;13.74;46.64;101930.53;6185870;23;20012;-79
2022/05/04 07:44:43;;;;;;;17.13;7.82;;;;;;;13.67;48.20;101956.03;6186132;23;20016;-83
2022/05/04 07:47:08;;;;;;;18.73;8.35;;;;;;;13.63;49.41;101951.91;6185594;23;20346;-81
2022/05/04 07:49:34;;;;;;;19.60;8.27;;;;;;;13.67;49.45;101952.59;6186272;23;20356;-80
2022/05/04 07:51:59;;;;;;;17.48;8.10;;;;;;;13.70;49.42;101952.41;6185928;23;20092;-81
2022/05/04 07:54:24;;;;;;;17.48;8.20;;;;;;;13.56;48.87;101949.75;6185447;23;20011;-79
2022/05/04 07:56:50;;;;;;;23.20;9.30;;;;;;;13.34;50.06;101952.75;6185971;23;20012;-81
2022/05/04 07:59:15;;;;;;;17.35;8.20;;;;;;;12.88;49.58;101906.00;6185723;23;20011;-80
2022/05/04 08:04:24;;;;;;;17.23;9.13;;;;;;;12.96;51.46;101966.03;6185991;23;20335;-80
2022/05/04 08:06:50;;;;;;;23.40;8.77;;;;;;;13.01;50.47;101966.66;6185961;23;20004;-80
2022/05/04 08:09:16;;;;;;;21.35;8.60;;;;;;;13.06;50.59;101971.56;6186235;23;20005;-81
2022/05/04 08:11:43;;;;;;;23.95;9.00;;;;;;;13.08;51.92;101972.34;6185475;23;20001;-78
2022/05/04 08:14:09;;;;;;;25.45;9.80;;;;;;;12.98;50.88;101969.41;6185849;23;20008;-81
2022/05/04 08:16:34;;;;;;;23.50;10.05;;;;;;;12.88;50.83;101961.31;6185500;23;20424;-80
2022/05/04 08:19:00;;;;;;;20.85;10.02;;;;;;;12.98;50.75;101971.16;6185217;23;20012;-78
2022/05/04 08:21:26;;;;;;;19.88;9.85;;;;;;;12.95;51.67;101966.13;6185146;23;20008;-80
2022/05/04 08:23:51;;;;;;;22.40;9.60;;;;;;;13.02;50.15;101964.88;6184891;23;20156;-81
2022/05/04 08:26:17;;;;;;;21.90;9.75;;;;;;;12.77;50.42;101919.56;6185651;23;20001;-83
2022/05/04 08:28:42;;;;;;;21.27;9.30;;;;;;;13.14;53.00;101959.00;6185931;23;20005;-82
2022/05/04 08:31:07;;;;;;;24.20;11.35;;;;;;;13.14;50.73;101959.84;6185578;23;20005;-81
2022/05/04 08:33:34;;;;;;;23.83;11.30;;;;;;;12.97;51.25;101933.19;6185622;23;20055;-80
2022/05/04 08:36:00;;;;;;;22.35;10.40;;;;;;;13.10;50.54;101955.75;6185590;23;20008;-82
2022/05/04 08:38:27;;;;;;;20.83;10.25;;;;;;;13.13;50.87;101965.97;6185705;23;20008;-80
2022/05/04 08:40:57;;;;;;;23.90;10.88;;;;;;;12.85;50.87;101968.41;6185546;23;20001;-77
2022/05/04 08:43:26;;;;;;;21.00;10.43;;;;;;;12.76;53.03;101972.31;6185564;23;20005;-80
2022/05/04 08:45:52;;;;;;;25.13;10.48;;;;;;;12.83;51.96;101965.06;6185368;23;20487;-81
2022/05/04 08:48:19;;;;;;;25.50;10.90;;;;;;;12.46;52.27;101889.28;6185345;23;20008;-80
2022/05/04 08:50:45;;;;;;;24.02;10.15;;;;;;;12.85;51.41;101940.72;6185750;23;20012;-80
2022/05/04 08:53:12;;;;;;;21.08;10.98;;;;;;;13.01;52.94;101966.66;6185803;23;20008;-81
2022/05/04 08:55:38;;;;;;;26.20;11.52;;;;;;;13.09;52.60;101966.22;6185922;23;20419;-82
2022/05/04 08:58:07;;;;;;;23.75;10.57;;;;;;;13.05;51.85;101954.34;6184659;23;20502;-82
2022/05/04 09:00:32;;;;;;;26.23;10.38;;;;;;;13.07;52.58;101968.03;6185519;23;20059;-83
2022/05/04 09:02:58;;;;;;;25.08;11.48;;;;;;;13.03;51.11;101963.97;6185485;23;20005;-83
2022/05/04 09:05:25;;;;;;;24.08;11.15;;;;;;;13.00;52.04;101948.59;6186111;23;20441;-84
2022/05/04 09:07:55;;;;;;;23.73;11.30;;;;;;;12.99;50.21;101950.34;6160771;23;20009;-79
2022/05/04 09:10:27;;;;;;;22.00;10.75;;;;;;;12.58;50.20;101918.88;6187568;23;20008;-85
2022/05/04 09:12:55;;;;;;;20.10;11.00;;;;;;;12.83;50.50;101947.75;6187579;23;20315;-80
2022/05/04 09:15:26;;;;;;;22.50;10.82;;;;;;;13.00;52.31;101962.38;6161112;23;20005;-80
2022/05/04 09:17:55;;;;;;;26.02;11.98;;;;;;;12.95;51.57;101940.22;6187173;23;20439;-81
2022/05/04 09:23:10;;;;;;;30.90;11.68;;;;;;;13.07;50.46;101944.72;6187307;23;20017;-86
2022/05/04 09:25:36;;;;;;;23.73;11.90;;;;;;;13.05;51.96;101936.19;6187280;23;20323;-84
2022/05/04 09:28:02;;;;;;;25.85;12.18;;;;;;;13.34;52.52;101948.38;6186952;23;20031;-85
2022/05/04 09:30:27;;;;;;;22.60;11.43;;;;;;;13.27;49.46;101938.44;6187215;23;20004;-79
2022/05/04 09:32:53;;;;;;;22.88;12.05;;;;;;;13.16;49.39;101937.25;6187204;23;20427;-78
2022/05/04 09:35:18;;;;;;;28.80;11.30;;;;;;;13.16;50.92;101947.63;6187104;23;20009;-79
2022/05/04 09:46:14;;;;;;;24.05;11.13;;;;;;;12.98;51.18;101919.28;6186659;23;20100;-78
2022/05/04 09:48:40;;;;;;;27.10;12.18;;;;;;;13.13;51.27;101936.59;6187047;23;20033;-78
2022/05/04 09:51:09;;;;;;;26.42;11.80;;;;;;;13.08;51.48;101923.06;6187123;23;20432;-80
2022/05/04 09:53:36;;;;;;;25.38;12.40;;;;;;;13.27;51.42;101938.44;6187666;23;20004;-77
2022/05/04 09:56:02;;;;;;;24.85;11.98;;;;;;;13.33;51.79;101930.31;6160424;23;20095;-78
2022/05/04 09:58:30;;;;;;;23.55;12.68;;;;;;;13.23;50.18;101917.03;6187235;23;20001;-77
2022/05/04 10:00:57;;;;;;;29.15;12.90;;;;;;;13.36;51.64;101928.38;6187194;23;20008;-76
2022/05/04 10:03:23;;;;;;;27.33;12.93;;;;;;;13.30;50.32;101927.91;6186575;23;20005;-77
2022/05/04 10:05:50;;;;;;;24.85;12.60;;;;;;;13.36;51.00;101933.56;6186815;23;20008;-76
2022/05/04 10:08:16;;;;;;;23.63;12.57;;;;;;;13.40;51.55;101924.69;6185976;23;20017;-76
2022/05/04 10:10:42;;;;;;;33.15;13.45;;;;;;;13.53;51.57;101924.00;6187237;23;20005;-76
2022/05/04 10:13:08;;;;;;;26.60;13.35;;;;;;;13.53;50.89;101929.19;6187096;23;20059;-76
2022/05/04 10:15:36;;;;;;;23.77;12.55;;;;;;;13.48;51.28;101922.50;6186954;23;20427;-77
2022/05/04 10:18:07;;;;;;;31.63;13.75;;;;;;;13.53;51.90;101926.56;6186372;23;20005;-77
2022/05/04 10:20:39;;;;;;;31.40;13.98;;;;;;;13.37;50.49;101921.41;6186771;23;20006;-78
2022/05/04 10:23:27;;;;;;;26.67;12.95;;;;;;;13.28;51.84;101889.09;6186712;23;20051;-78
2022/05/04 10:25:57;;;;;;;22.63;12.55;;;;;;;13.46;51.61;101916.53;6160484;23;20001;-78
2022/05/04 10:28:23;;;;;;;26.50;13.00;;;;;;;13.43;50.96;101911.53;6186960;23;20076;-77
2022/05/04 10:30:51;;;;;;;24.55;12.98;;;;;;;13.53;52.29;101924.00;6186706;23;20084;-77
2022/05/04 10:33:18;;;;;;;28.65;12.77;;;;;;;13.59;51.65;101914.09;6186722;23;20001;-78
2022/05/04 10:35:43;;;;;;;27.25;13.27;;;;;;;13.62;49.85;101919.09;6186750;23;20143;-78
2022/05/04 10:38:27;;;;;;;29.13;14.50;;;;;;;13.79;52.86;101915.53;6186699;23;20367;-78
2022/05/04 10:40:56;;;;;;;35.85;13.50;;;;;;;13.71;49.28;101892.59;6186576;23;20009;-79
2022/05/04 10:43:37;;;;;;;28.02;13.32;;;;;;;13.83;50.02;101905.78;6186755;23;20052;-80
2022/05/04 10:46:13;;;;;;;24.83;12.65;;;;;;;13.82;49.54;101910.13;6186649;23;20001;-79
2022/05/04 10:49:07;;;;;;;27.75;14.32;;;;;;;13.84;50.42;101908.28;6185605;23;20012;-79
2022/05/04 10:51:35;;;;;;;27.83;13.20;;;;;;;13.89;50.78;101914.06;6181910;23;20067;-79
2022/05/04 10:54:19;;;;;;;25.70;13.00;;;;;;;13.78;49.61;101880.09;6186625;23;20060;-80
2022/05/04 10:56:47;;;;;;;29.27;13.70;;;;;;;13.94;50.01;101891.22;6186564;23;20072;-80
2022/05/04 10:59:24;;;;;;;32.03;14.13;;;;;;;14.12;50.14;101904.88;6186060;23;20016;-80
2022/05/04 11:01:49;;;;;;;37.67;13.65;;;;;;;14.13;50.55;101888.34;6186303;23;20411;-79
2022/05/04 11:04:22;;;;;;;29.92;13.27;;;;;;;14.22;49.94;101903.38;6158757;23;20047;-79
2022/05/04 11:07:00;;;;;;;30.65;15.10;;;;;;;13.98;49.99;101879.75;6159629;23;20001;-79
2022/05/04 11:09:32;;;;;;;34.85;14.90;;;;;;;14.06;49.50;101902.66;6186512;23;20016;-79
2022/05/04 11:12:03;;;;;;;24.52;13.18;;;;;;;14.10;49.95;101905.91;6186565;23;19997;-79
2022/05/04 11:14:28;;;;;;;42.50;15.05;;;;;;;13.81;49.30;101859.13;6186503;23;20001;-79
2022/05/04 11:16:55;;;;;;;29.58;14.07;;;;;;;14.12;48.93;101897.06;6186247;23;20056;-79
2022/05/04 11:19:25;;;;;;;22.83;13.15;;;;;;;14.05;49.15;101867.19;6185710;23;20427;-79
2022/05/04 11:21:51;;;;;;;36.03;13.80;;;;;;;14.43;49.69;101901.22;6186571;23;20008;-78
2022/05/04 11:24:17;;;;;;;28.27;13.52;;;;;;;14.46;48.51;101882.06;6185659;23;20017;-81
2022/05/04 11:26:52;;;;;;;27.00;13.98;;;;;;;14.58;47.99;101879.50;6159690;23;20335;-80
2022/05/04 11:29:21;;;;;;;26.80;13.98;;;;;;;14.67;49.29;101892.88;6185975;23;20001;-80
2022/05/04 11:31:47;;;;;;;23.60;12.98;;;;;;;14.55;47.84;101863.25;6186123;23;20430;-79
2022/05/04 11:34:17;;;;;;;27.45;10.40;;;;;;;14.63;45.42;101853.22;6186121;23;20015;-79
2022/05/04 11:36:48;;;;;;;28.95;12.20;;;;;;;14.66;44.95;101868.63;6186237;23;20323;-78
2022/05/04 11:39:19;;;;;;;22.48;10.95;;;;;;;14.67;46.52;101851.28;6186284;23;20075;-79
2022/05/04 11:41:48;;;;;;;24.05;11.55;;;;;;;14.71;45.48;101858.75;6186031;23;20005;-79
2022/05/04 11:44:14;;;;;;;18.80;11.30;;;;;;;14.64;45.15;101855.72;6185774;23;20001;-79
2022/05/04 11:46:41;;;;;;;26.67;11.65;;;;;;;14.84;45.08;101884.81;6186169;23;20137;-79
2022/05/04 11:49:08;;;;;;;25.90;10.95;;;;;;;14.89;45.46;101882.75;6185868;23;20105;-80
2022/05/04 11:51:46;;;;;;;24.17;12.48;;;;;;;14.65;46.67;101825.38;6185607;23;20001;-80